createdAt,value
2019-04-04T00:01:55.544Z,7.57
2019-04-04T00:04:25.289Z,7.67
2019-04-04T00:06:58.102Z,7.70
2019-04-04T00:09:29.247Z,7.90
2019-04-04T00:12:00.545Z,7.47
2019-04-04T00:14:29.885Z,7.20
2019-04-04T00:16:59.171Z,7.80
2019-04-04T00:19:29.841Z,7.13
2019-04-04T00:21:59.834Z,8.00
2019-04-04T00:24:30.998Z,8.07
2019-04-04T00:27:03.055Z,7.80
2019-04-04T00:29:33.417Z,7.17
2019-04-04T00:32:04.426Z,7.73
2019-04-04T00:34:33.569Z,7.63
2019-04-04T00:37:04.387Z,7.17
2019-04-04T00:39:34.167Z,7.87
2019-04-04T00:42:03.772Z,7.63
2019-04-04T00:44:32.870Z,7.13
2019-04-04T00:47:02.287Z,7.70
2019-04-04T00:49:31.682Z,8.10
2019-04-04T00:52:00.930Z,7.20
2019-04-04T00:54:30.070Z,6.97
2019-04-04T00:56:59.200Z,7.20
2019-04-04T00:59:28.926Z,7.10
2019-04-04T01:01:58.279Z,7.40
2019-04-04T01:04:30.832Z,7.37
2019-04-04T01:06:58.739Z,7.73
2019-04-04T01:09:28.405Z,7.80
2019-04-04T01:12:01.207Z,6.70
2019-04-04T01:14:30.640Z,7.77
2019-04-04T01:16:59.718Z,7.63
2019-04-04T01:19:30.644Z,7.50
2019-04-04T01:22:00.019Z,7.87
2019-04-04T01:24:29.811Z,7.80
2019-04-04T01:26:59.147Z,7.17
2019-04-04T01:29:28.240Z,8.10
2019-04-04T01:31:57.324Z,7.70
2019-04-04T01:34:26.349Z,9.03
2019-04-04T01:36:56.569Z,7.83
2019-04-04T01:39:26.275Z,8.37
2019-04-04T01:41:55.479Z,8.60
2019-04-04T01:44:24.510Z,8.27
2019-04-04T01:46:55.636Z,8.10
2019-04-04T01:49:24.698Z,8.77
2019-04-04T01:51:56.783Z,9.00
2019-04-04T01:54:24.599Z,8.83
2019-04-04T01:56:55.931Z,8.33
2019-04-04T01:59:25.228Z,8.30
2019-04-04T02:01:54.310Z,8.67
2019-04-04T02:04:25.406Z,8.10
2019-04-04T02:06:58.865Z,8.77
2019-04-04T02:09:26.656Z,6.93
2019-04-04T02:11:55.782Z,8.90
2019-04-04T02:14:27.240Z,8.40
2019-04-04T02:16:56.330Z,8.23
2019-04-04T02:19:25.449Z,7.93
2019-04-04T02:21:54.483Z,8.87
2019-04-04T02:24:23.683Z,8.47
2019-04-04T02:26:52.736Z,7.37
2019-04-04T02:29:22.952Z,7.83
2019-04-04T02:31:54.838Z,8.20
2019-04-04T02:34:23.975Z,8.60
2019-04-04T02:36:53.050Z,8.67
2019-04-04T02:39:25.649Z,7.93
2019-04-04T02:41:54.707Z,7.70
2019-04-04T02:44:24.147Z,8.00
2019-04-04T02:46:53.207Z,7.50
2019-04-04T02:49:27.916Z,8.63
2019-04-04T02:51:54.492Z,7.83
2019-04-04T02:54:25.792Z,7.50
2019-04-04T02:56:54.833Z,7.50
2019-04-04T02:59:29.009Z,7.10
2019-04-04T03:01:58.151Z,7.33
2019-04-04T03:04:27.307Z,7.97
2019-04-04T03:06:58.371Z,8.37
2019-04-04T03:09:28.242Z,7.67
2019-04-04T03:11:57.300Z,7.43
2019-04-04T03:14:26.375Z,7.77
2019-04-04T03:16:56.880Z,7.40
2019-04-04T03:19:26.201Z,8.90
2019-04-04T03:21:56.769Z,7.97
2019-04-04T03:24:25.898Z,8.03
2019-04-04T03:26:55.041Z,8.10
2019-04-04T03:29:24.163Z,8.87
2019-04-04T03:31:53.323Z,12.23
2019-04-04T03:34:24.536Z,12.63
2019-04-04T03:36:53.676Z,9.40
2019-04-04T03:39:22.758Z,9.30
2019-04-04T03:41:51.923Z,8.73
2019-04-04T03:44:21.270Z,8.20
2019-04-04T03:46:50.690Z,8.67
2019-04-04T03:49:23.194Z,8.97
2019-04-04T03:51:51.957Z,8.70
2019-04-04T03:54:24.350Z,8.77
2019-04-04T03:56:55.105Z,8.80
2019-04-04T03:59:25.317Z,8.87
2019-04-04T04:01:54.429Z,8.20
2019-04-04T04:04:26.819Z,8.73
2019-04-04T04:06:58.593Z,8.90
2019-04-04T04:09:29.018Z,9.50
2019-04-04T04:11:58.096Z,8.93
2019-04-04T04:14:27.282Z,9.40
2019-04-04T04:16:56.352Z,8.97
2019-04-04T04:19:29.887Z,9.83
2019-04-04T04:21:56.194Z,8.13
2019-04-04T04:24:26.814Z,8.83
2019-04-04T04:26:56.054Z,8.53
2019-04-04T04:29:29.477Z,8.53
2019-04-04T04:31:58.332Z,8.83
2019-04-04T04:34:32.921Z,9.40
2019-04-04T04:37:00.458Z,14.73
2019-04-04T04:39:35.871Z,10.97
2019-04-04T04:42:05.716Z,9.07
2019-04-04T04:44:37.785Z,9.30
2019-04-04T04:47:05.691Z,9.87
2019-04-04T04:49:36.443Z,9.37
2019-04-04T04:52:05.471Z,9.77
2019-04-04T04:54:34.519Z,12.00
2019-04-04T04:57:04.831Z,10.87
2019-04-04T04:59:34.142Z,13.50
2019-04-04T05:02:03.223Z,16.00
2019-04-04T05:04:33.826Z,12.17
2019-04-04T05:07:07.143Z,11.53
2019-04-04T05:09:37.091Z,10.40
2019-04-04T05:12:06.257Z,11.20
2019-04-04T05:14:35.299Z,10.47
2019-04-04T05:17:04.764Z,10.43
2019-04-04T05:19:34.134Z,10.70
2019-04-04T05:22:03.493Z,11.13
2019-04-04T05:24:32.809Z,13.77
2019-04-04T05:27:01.938Z,14.53
2019-04-04T05:29:31.191Z,12.67
2019-04-04T05:32:02.667Z,11.40
2019-04-04T05:34:34.413Z,11.73
2019-04-04T05:37:07.363Z,12.70
2019-04-04T05:39:38.127Z,12.03
2019-04-04T05:42:07.582Z,11.57
2019-04-04T05:44:36.811Z,12.70
2019-04-04T05:47:06.110Z,12.60
2019-04-04T05:49:36.152Z,16.20
2019-04-04T05:52:08.797Z,18.90
2019-04-04T05:54:39.174Z,13.70
2019-04-04T05:57:08.343Z,11.73
2019-04-04T05:59:42.232Z,11.33
2019-04-04T06:02:14.607Z,11.70
2019-04-04T06:04:45.993Z,10.53
2019-04-04T06:07:16.540Z,10.63
2019-04-04T06:09:47.482Z,10.97
2019-04-04T06:12:17.168Z,10.93
2019-04-04T06:14:47.125Z,11.13
2019-04-04T06:17:16.189Z,16.53
2019-04-04T06:19:45.331Z,27.90
2019-04-04T06:22:15.915Z,12.73
2019-04-04T06:24:45.385Z,11.70
2019-04-04T06:27:14.413Z,11.43
2019-04-04T06:29:47.656Z,9.80
2019-04-04T06:32:15.985Z,18.37
2019-04-04T06:34:45.249Z,21.40
2019-04-04T06:37:14.427Z,11.23
2019-04-04T06:39:45.364Z,10.33
2019-04-04T06:42:14.734Z,10.33
2019-04-04T06:44:44.449Z,9.80
2019-04-04T06:47:16.401Z,10.20
2019-04-04T06:49:47.767Z,10.47
2019-04-04T06:52:19.239Z,9.40
2019-04-04T06:54:48.770Z,8.70
2019-04-04T06:57:17.907Z,8.30
2019-04-04T06:59:52.075Z,7.47
2019-04-04T07:02:27.610Z,8.23
2019-04-04T07:04:57.353Z,7.90
2019-04-04T07:07:27.199Z,7.33
2019-04-04T07:09:57.884Z,6.00
2019-04-04T07:12:28.568Z,7.67
2019-04-04T07:14:58.393Z,8.13
2019-04-04T07:17:27.570Z,9.00
2019-04-04T07:19:59.340Z,7.23
2019-04-04T07:22:28.959Z,5.30
2019-04-04T07:25:01.116Z,5.33
2019-04-04T07:27:33.633Z,5.93
2019-04-04T07:30:03.800Z,5.80
2019-04-04T07:32:34.171Z,5.60
2019-04-04T07:35:04.996Z,6.53
2019-04-04T07:37:36.409Z,14.60
2019-04-04T07:40:05.894Z,8.00
2019-04-04T07:42:35.235Z,8.10
2019-04-04T07:45:06.462Z,5.80
2019-04-04T07:47:35.566Z,5.23
2019-04-04T07:50:05.006Z,4.23
2019-04-04T07:52:34.229Z,3.90
2019-04-04T07:55:03.476Z,3.30
2019-04-04T07:57:35.957Z,3.87
2019-04-04T08:00:07.273Z,4.40
2019-04-04T08:02:36.296Z,3.97
2019-04-04T08:05:14.361Z,4.00
2019-04-04T08:07:43.616Z,3.47
2019-04-04T08:10:20.648Z,3.37
2019-04-04T08:12:45.617Z,3.30
2019-04-04T08:15:15.815Z,3.30
2019-04-04T08:17:45.051Z,3.23
2019-04-04T08:20:15.515Z,3.70
2019-04-04T08:22:48.651Z,3.83
2019-04-04T08:25:22.891Z,3.87
2019-04-04T08:27:53.453Z,3.33
2019-04-04T08:30:23.119Z,3.33
2019-04-04T08:32:52.362Z,3.47
2019-04-04T08:35:22.924Z,3.00
2019-04-04T08:37:52.108Z,4.10
2019-04-04T08:40:28.625Z,5.23
2019-04-04T08:42:58.299Z,5.40
2019-04-04T08:45:27.468Z,4.90
2019-04-04T08:47:56.704Z,5.50
2019-04-04T08:50:26.013Z,6.03
2019-04-04T08:52:56.270Z,6.00
2019-04-04T08:55:25.399Z,6.63
2019-04-04T08:57:54.641Z,6.30
2019-04-04T09:00:26.257Z,6.00
2019-04-04T09:02:55.372Z,5.90
2019-04-04T09:05:26.902Z,5.80
2019-04-04T09:07:56.204Z,10.90
2019-04-04T09:10:25.393Z,50.77
2019-04-04T09:12:54.637Z,31.87
2019-04-04T09:15:24.112Z,15.03
2019-04-04T09:17:59.038Z,9.83
2019-04-04T09:20:28.332Z,5.57
2019-04-04T09:22:57.805Z,9.33
2019-04-04T09:25:27.392Z,5.83
2019-04-04T09:27:56.504Z,5.20
2019-04-04T09:30:25.720Z,5.10
2019-04-04T09:32:55.112Z,5.43
2019-04-04T09:35:24.438Z,5.37
2019-04-04T09:37:53.848Z,5.03
2019-04-04T09:40:26.632Z,5.30
2019-04-04T09:42:55.720Z,5.07
2019-04-04T09:45:26.687Z,6.60
2019-04-04T09:47:55.768Z,6.07
2019-04-04T09:50:25.442Z,8.70
2019-04-04T09:52:54.565Z,5.27
2019-04-04T09:55:23.811Z,5.10
2019-04-04T09:57:53.015Z,4.43
2019-04-04T10:00:23.072Z,4.37
2019-04-04T10:02:52.096Z,4.03
2019-04-04T10:05:21.162Z,5.53
2019-04-04T10:07:50.220Z,4.50
2019-04-04T10:10:23.368Z,7.53
2019-04-04T10:12:52.474Z,4.70
2019-04-04T10:15:22.663Z,4.53
2019-04-04T10:17:51.780Z,3.80
2019-04-04T10:20:20.957Z,3.73
2019-04-04T10:22:50.100Z,3.93
2019-04-04T10:25:19.858Z,4.17
2019-04-04T10:27:48.950Z,4.13
2019-04-04T10:30:17.982Z,3.63
2019-04-04T10:32:47.045Z,3.80
2019-04-04T10:35:16.069Z,3.00
2019-04-04T10:37:45.245Z,3.13
2019-04-04T10:40:17.788Z,3.20
2019-04-04T10:42:46.844Z,3.10
2019-04-04T10:45:15.884Z,2.67
2019-04-04T10:47:44.974Z,10.20
2019-04-04T10:50:14.533Z,3.93
2019-04-04T10:52:43.911Z,5.07
2019-04-04T10:55:14.099Z,15.70
2019-04-04T10:57:43.454Z,7.90
2019-04-04T11:00:12.844Z,4.87
2019-04-04T11:02:42.333Z,3.10
2019-04-04T11:05:11.435Z,3.70
2019-04-04T11:07:40.504Z,3.77
2019-04-04T11:10:10.869Z,3.37
2019-04-04T11:12:40.259Z,3.60
2019-04-04T11:15:09.922Z,3.03
2019-04-04T11:17:38.998Z,3.37
2019-04-04T11:20:08.067Z,3.10
2019-04-04T11:22:38.115Z,6.60
2019-04-04T11:25:08.267Z,4.00
2019-04-04T11:27:39.009Z,5.67
2019-04-04T11:30:09.630Z,5.07
2019-04-04T11:32:39.846Z,4.27
2019-04-04T11:35:10.200Z,10.13
2019-04-04T11:37:39.341Z,9.33
2019-04-04T11:40:09.119Z,7.93
2019-04-04T11:42:38.344Z,11.33
2019-04-04T11:45:07.483Z,21.17
2019-04-04T11:47:36.547Z,4.60
2019-04-04T11:50:05.980Z,41.90
2019-04-04T11:52:35.071Z,13.37
2019-04-04T11:55:06.592Z,6.33
2019-04-04T11:57:35.624Z,2.50
2019-04-04T12:00:05.359Z,2.10
2019-04-04T12:02:34.377Z,1.60
2019-04-04T12:05:03.824Z,1.70
2019-04-04T12:07:32.891Z,1.90
2019-04-04T12:10:07.858Z,2.40
2019-04-04T12:12:32.661Z,2.10
2019-04-04T12:15:01.894Z,2.20
2019-04-04T12:17:32.176Z,2.33
2019-04-04T12:20:01.328Z,2.03
2019-04-04T12:22:30.391Z,1.90
2019-04-04T12:24:59.430Z,2.00
2019-04-04T12:27:28.445Z,1.80
2019-04-04T12:29:57.479Z,1.97
2019-04-04T12:32:26.548Z,2.00
2019-04-04T12:34:55.599Z,1.90
2019-04-04T12:37:24.755Z,1.77
2019-04-04T12:39:53.843Z,1.80
2019-04-04T12:42:24.888Z,2.00
2019-04-04T12:44:54.759Z,2.20
2019-04-04T12:47:24.447Z,2.00
2019-04-04T12:49:53.595Z,1.83
2019-04-04T12:52:23.626Z,2.10
2019-04-04T12:54:52.955Z,2.07
2019-04-04T12:57:24.309Z,2.30
2019-04-04T12:59:53.587Z,1.87
2019-04-04T13:02:22.928Z,2.20
2019-04-04T13:04:52.549Z,2.37
2019-04-04T13:07:22.325Z,2.43
2019-04-04T13:09:52.010Z,3.00
2019-04-04T13:12:23.341Z,2.80
2019-04-04T13:14:54.972Z,2.50
2019-04-04T13:17:25.459Z,2.10
2019-04-04T13:19:55.703Z,2.20
2019-04-04T13:22:25.484Z,2.37
2019-04-04T13:24:56.545Z,2.17
2019-04-04T13:27:26.230Z,2.20
2019-04-04T13:29:55.633Z,2.60
2019-04-04T13:32:25.161Z,1.70
2019-04-04T13:34:59.515Z,2.20
2019-04-04T13:37:25.712Z,2.20
2019-04-04T13:39:55.387Z,2.33
2019-04-04T13:42:24.666Z,2.73
2019-04-04T13:44:53.906Z,2.20
2019-04-04T13:47:25.648Z,2.37
2019-04-04T13:49:54.868Z,2.87
2019-04-04T13:52:26.456Z,10.57
2019-04-04T13:54:59.439Z,3.70
2019-04-04T13:57:29.612Z,4.20
2019-04-04T14:00:00.350Z,22.93
2019-04-04T14:02:31.738Z,25.00
2019-04-04T14:05:09.675Z,37.10
2019-04-04T14:07:33.628Z,4.67
2019-04-04T14:10:16.986Z,1.73
2019-04-04T14:12:49.127Z,1.37
2019-04-04T14:15:19.767Z,1.20
2019-04-04T14:17:49.015Z,1.30
2019-04-04T14:20:19.322Z,1.13
2019-04-04T14:22:51.503Z,1.30
2019-04-04T14:25:22.065Z,1.17
2019-04-04T14:27:51.301Z,1.50
2019-04-04T14:30:23.492Z,1.63
2019-04-04T14:32:55.013Z,1.40
2019-04-04T14:35:25.324Z,1.27
2019-04-04T14:37:56.315Z,1.30
2019-04-04T14:40:27.798Z,1.30
2019-04-04T14:42:57.151Z,2.07
2019-04-04T14:45:27.821Z,1.57
2019-04-04T14:47:56.983Z,1.20
2019-04-04T14:50:28.082Z,1.20
2019-04-04T14:52:57.090Z,2.07
2019-04-04T14:55:26.242Z,1.40
2019-04-04T14:57:56.135Z,1.23
2019-04-04T15:00:25.246Z,1.40
2019-04-04T15:02:54.529Z,1.50
2019-04-04T15:05:25.560Z,1.80
2019-04-04T15:07:54.701Z,2.47
2019-04-04T15:10:26.094Z,1.80
2019-04-04T15:12:55.178Z,1.40
2019-04-04T15:15:26.462Z,1.53
2019-04-04T15:17:55.735Z,1.10
2019-04-04T15:20:25.119Z,6.57
2019-04-04T15:22:54.215Z,9.97
2019-04-04T15:25:23.454Z,1.80
2019-04-04T15:27:53.269Z,1.10
2019-04-04T15:30:24.855Z,1.13
2019-04-04T15:32:54.379Z,1.37
2019-04-04T15:35:24.932Z,0.90
2019-04-04T15:37:53.997Z,1.00
2019-04-04T15:40:26.266Z,0.90
2019-04-04T15:42:55.727Z,0.90
2019-04-04T15:45:26.140Z,1.10
2019-04-04T15:47:55.186Z,0.90
2019-04-04T15:50:30.117Z,1.20
2019-04-04T15:52:59.188Z,1.00
2019-04-04T15:55:29.726Z,1.20
2019-04-04T15:57:58.815Z,1.50
2019-04-04T16:00:28.163Z,1.40
2019-04-04T16:02:57.171Z,1.30
2019-04-04T16:05:26.244Z,1.00
2019-04-04T16:07:55.324Z,1.30
2019-04-04T16:10:24.615Z,1.00
2019-04-04T16:12:53.732Z,1.30
2019-04-04T16:15:23.917Z,1.50
2019-04-04T16:17:53.006Z,1.20
2019-04-04T16:20:22.142Z,1.37
2019-04-04T16:22:51.136Z,1.30
2019-04-04T16:25:20.318Z,1.30
2019-04-04T16:27:49.367Z,1.70
2019-04-04T16:30:21.162Z,1.30
2019-04-04T16:32:50.305Z,1.40
2019-04-04T16:35:19.420Z,1.13
2019-04-04T16:37:48.516Z,1.57
2019-04-04T16:40:17.628Z,1.40
2019-04-04T16:42:46.758Z,1.80
2019-04-04T16:45:15.883Z,2.47
2019-04-04T16:47:46.363Z,1.53
2019-04-04T16:50:22.529Z,5.67
2019-04-04T16:52:55.883Z,3.50
2019-04-04T16:55:29.967Z,3.63
2019-04-04T16:57:59.037Z,1.77
2019-04-04T17:00:28.257Z,2.60
2019-04-04T17:02:57.349Z,1.70
2019-04-04T17:05:26.451Z,1.40
2019-04-04T17:07:55.571Z,3.03
2019-04-04T17:10:36.975Z,5.20
2019-04-04T17:13:07.047Z,3.10
2019-04-04T17:15:37.287Z,1.80
2019-04-04T17:18:06.452Z,1.63
2019-04-04T17:20:35.503Z,2.20
2019-04-04T17:23:04.611Z,2.20
2019-04-04T17:25:35.855Z,1.60
2019-04-04T17:28:05.515Z,2.57
2019-04-04T17:30:34.584Z,3.00
2019-04-04T17:33:08.578Z,2.77
2019-04-04T17:35:39.390Z,3.30
2019-04-04T17:38:08.457Z,5.43
2019-04-04T17:40:38.848Z,3.93
2019-04-04T17:43:10.496Z,13.10
2019-04-04T17:45:41.565Z,9.97
2019-04-04T17:48:10.758Z,13.20
2019-04-04T17:50:40.230Z,4.17
2019-04-04T17:53:09.863Z,2.57
2019-04-04T17:55:40.175Z,2.13
2019-04-04T17:58:11.944Z,2.20
2019-04-04T18:00:41.533Z,2.03
2019-04-04T18:03:14.177Z,3.50
2019-04-04T18:05:46.497Z,3.03
2019-04-04T18:08:15.661Z,3.57
2019-04-04T18:10:46.224Z,2.40
2019-04-04T18:13:15.286Z,2.70
2019-04-04T18:15:45.290Z,2.90
2019-04-04T18:18:16.928Z,9.73
2019-04-04T18:20:47.787Z,6.70
2019-04-04T18:23:18.072Z,4.80
2019-04-04T18:25:48.489Z,6.67
2019-04-04T18:28:17.536Z,5.80
2019-04-04T18:30:46.699Z,2.23
2019-04-04T18:33:19.265Z,2.67
2019-04-04T18:35:49.760Z,3.03
2019-04-04T18:38:32.143Z,3.10
2019-04-04T18:41:01.262Z,3.40
2019-04-04T18:43:30.351Z,3.30
2019-04-04T18:46:05.685Z,3.77
2019-04-04T18:48:35.197Z,4.10
2019-04-04T18:51:04.383Z,3.60
2019-04-04T18:53:33.684Z,3.70
2019-04-04T18:56:04.080Z,3.30
2019-04-04T18:58:33.334Z,3.67
2019-04-04T19:01:02.408Z,4.10
2019-04-04T19:03:31.525Z,4.90
2019-04-04T19:06:00.606Z,4.80
2019-04-04T19:08:29.743Z,5.13
2019-04-04T19:10:58.761Z,5.10
2019-04-04T19:13:28.332Z,4.87
2019-04-04T19:16:00.252Z,4.57
2019-04-04T19:18:28.627Z,5.10
2019-04-04T19:20:57.634Z,6.03
2019-04-04T19:23:26.749Z,8.00
2019-04-04T19:25:57.430Z,6.23
2019-04-04T19:28:30.961Z,6.00
2019-04-04T19:31:00.066Z,6.03
2019-04-04T19:33:29.224Z,6.40
2019-04-04T19:35:59.495Z,6.60
2019-04-04T19:38:28.596Z,7.60
2019-04-04T19:41:01.409Z,7.47
2019-04-04T19:43:30.908Z,7.07
2019-04-04T19:46:00.086Z,6.70
2019-04-04T19:48:29.853Z,6.47
2019-04-04T19:50:59.250Z,6.33
2019-04-04T19:53:29.019Z,6.53
2019-04-04T19:55:58.363Z,5.83
2019-04-04T19:58:27.960Z,6.10
2019-04-04T20:00:57.902Z,5.53
2019-04-04T20:03:27.277Z,5.77
2019-04-04T20:05:56.651Z,5.90
2019-04-04T20:08:25.951Z,6.57
2019-04-04T20:11:05.406Z,6.30
2019-04-04T20:13:34.558Z,6.23
2019-04-04T20:16:05.357Z,7.20
2019-04-04T20:18:34.577Z,6.70
2019-04-04T20:21:03.935Z,6.50
2019-04-04T20:23:35.429Z,6.37
2019-04-04T20:26:06.152Z,6.77
2019-04-04T20:28:35.805Z,6.00
2019-04-04T20:31:05.184Z,6.20
2019-04-04T20:33:35.697Z,6.50
2019-04-04T20:36:06.720Z,6.97
2019-04-04T20:38:36.142Z,6.53
2019-04-04T20:41:07.117Z,6.70
2019-04-04T20:43:45.227Z,6.83
2019-04-04T20:46:18.001Z,6.60
2019-04-04T20:48:47.431Z,6.73
2019-04-04T20:51:16.921Z,6.50
2019-04-04T20:53:46.238Z,6.60
2019-04-04T20:56:18.860Z,6.50
2019-04-04T20:58:48.055Z,7.10
2019-04-04T21:01:20.330Z,7.13
2019-04-04T21:03:49.677Z,7.77
2019-04-04T21:06:20.690Z,7.73
2019-04-04T21:08:49.888Z,7.83
2019-04-04T21:11:19.146Z,8.07
2019-04-04T21:13:56.412Z,7.70
2019-04-04T21:16:23.592Z,7.80
2019-04-04T21:18:52.921Z,7.73
2019-04-04T21:21:22.819Z,8.00
2019-04-04T21:23:54.149Z,8.33
2019-04-04T21:26:24.998Z,8.43
2019-04-04T21:28:54.639Z,7.80
2019-04-04T21:31:25.724Z,8.57
2019-04-04T21:33:56.076Z,7.90
2019-04-04T21:36:29.340Z,7.73
2019-04-04T21:38:58.620Z,7.63
2019-04-04T21:41:27.909Z,8.10
2019-04-04T21:44:09.228Z,8.33
2019-04-04T21:46:38.053Z,9.00
2019-04-04T21:49:07.268Z,8.97
2019-04-04T21:51:36.527Z,9.13
2019-04-04T21:54:05.764Z,9.63
2019-04-04T21:56:35.390Z,9.23
2019-04-04T21:59:04.870Z,9.80
2019-04-04T22:01:34.412Z,10.50
2019-04-04T22:04:03.823Z,10.03
2019-04-04T22:06:33.496Z,8.83
2019-04-04T22:09:06.874Z,10.07
2019-04-04T22:11:36.159Z,9.27
2019-04-04T22:14:05.488Z,9.10
2019-04-04T22:16:34.823Z,9.20
2019-04-04T22:19:04.150Z,8.43
2019-04-04T22:21:33.551Z,8.87
2019-04-04T22:24:03.664Z,7.97
2019-04-04T22:26:32.946Z,8.90
2019-04-04T22:29:02.221Z,9.53
2019-04-04T22:31:32.681Z,9.97
2019-04-04T22:34:01.937Z,9.27
2019-04-04T22:36:32.543Z,9.47
2019-04-04T22:39:01.920Z,10.50
2019-04-04T22:41:32.947Z,10.17
2019-04-04T22:44:06.463Z,10.50
2019-04-04T22:46:35.702Z,11.33
2019-04-04T22:49:06.924Z,10.07
2019-04-04T22:51:36.159Z,11.57
2019-04-04T22:54:07.153Z,11.90
2019-04-04T22:56:36.513Z,10.73
2019-04-04T22:59:07.841Z,10.87
2019-04-04T23:01:37.255Z,10.67
2019-04-04T23:04:06.617Z,11.57
2019-04-04T23:06:35.918Z,10.13
2019-04-04T23:09:09.122Z,9.67
2019-04-04T23:11:38.754Z,8.20
2019-04-04T23:14:08.217Z,9.17
2019-04-04T23:16:37.559Z,8.70
2019-04-04T23:19:07.060Z,9.97
2019-04-04T23:21:36.390Z,10.30
2019-04-04T23:24:05.632Z,10.87
2019-04-04T23:26:34.946Z,10.63
2019-04-04T23:29:06.819Z,11.00
2019-04-04T23:31:36.068Z,10.13
2019-04-04T23:34:05.400Z,10.70
2019-04-04T23:36:35.526Z,9.73
2019-04-04T23:39:06.201Z,8.77
2019-04-04T23:41:35.839Z,8.27
2019-04-04T23:44:05.579Z,8.70
2019-04-04T23:46:35.011Z,8.93
2019-04-04T23:49:04.512Z,8.67
2019-04-04T23:51:34.130Z,8.90
2019-04-04T23:54:05.629Z,9.60
2019-04-04T23:56:35.222Z,8.40
2019-04-04T23:59:05.202Z,8.87
